Time;durP1;ratioP1;P1;durP2;ratioP2;P2;SDS_P1;SDS_P2;PMS_P1;PMS_P2;Temp;Humidity;BMP_temperature;BMP_pressure;BME280_temperature;BME280_humidity;BME280_pressure;Samples;Min_cycle;Max_cycle;Signal;HPM_P1;HPM_P2
2022/12/17 13:07:29;;;;;;;33.60;14.20;;;;;;;11.29;44.24;102297.25;4994792;28;20054;-76
2022/12/17 13:09:57;;;;;;;34.65;17.38;;;;;;;11.69;43.25;102298.50;4992589;28;20448;-78
2022/12/17 13:12:43;;;;;;;28.05;12.98;;;;;;;11.00;41.99;102292.28;4994189;28;20056;-75
2022/12/17 13:15:22;;;;;;;33.28;17.00;;;;;;;10.85;44.72;102290.34;5009585;28;20045;-76
2022/12/17 13:18:01;;;;;;;35.47;15.85;;;;;;;10.88;44.24;102276.59;4998069;28;20053;-77
2022/12/17 13:20:33;;;;;;;33.38;15.90;;;;;;;11.41;41.69;102278.50;4994799;28;20072;-77
2022/12/17 13:23:27;;;;;;;37.00;16.70;;;;;;;10.88;42.55;102278.53;4994670;28;20048;-76
2022/12/17 13:26:29;;;;;;;25.15;11.77;;;;;;;10.04;43.33;102285.56;4995385;28;20080;-75
2022/12/17 13:29:10;;;;;;;31.27;14.25;;;;;;;9.96;43.57;102283.78;4983592;28;20084;-77
2022/12/17 13:31:49;;;;;;;34.53;14.38;;;;;;;9.08;44.58;102275.78;4993168;28;20060;-77
2022/12/17 13:34:24;;;;;;;36.10;17.25;;;;;;;9.54;45.50;102277.91;4992470;28;20053;-75
2022/12/17 13:36:57;;;;;;;;;;;;;;;10.06;44.09;102281.31;4993476;28;20885;-77
2022/12/17 13:39:39;;;;;;;38.42;16.95;;;;;;;9.93;44.88;102274.22;5000714;28;19929;-76
2022/12/17 13:42:16;;;;;;;27.75;12.20;;;;;;;9.55;44.12;102270.44;5005994;28;20057;-74
2022/12/17 13:44:45;;;;;;;38.05;18.60;;;;;;;9.77;45.15;102267.88;5005554;28;20056;-76
2022/12/17 13:47:21;;;;;;;21.13;9.60;;;;;;;9.16;44.97;102257.47;4997218;28;20049;-73
2022/12/17 13:49:58;;;;;;;38.67;18.83;;;;;;;9.75;45.66;102266.63;4991271;28;20781;-77
2022/12/17 13:52:45;;;;;;;39.60;16.75;;;;;;;9.71;44.55;102268.50;4992468;28;20379;-74
2022/12/17 13:55:24;;;;;;;26.75;11.40;;;;;;;9.19;45.38;102265.88;4993620;28;20064;-74
2022/12/17 13:57:52;;;;;;;37.30;18.35;;;;;;;9.18;46.41;102271.75;4991982;28;20091;-75
2022/12/17 14:00:25;;;;;;;36.70;19.80;;;;;;;9.65;46.50;102261.63;4997364;28;20061;-74
2022/12/17 14:02:53;;;;;;;37.28;19.92;;;;;;;10.18;46.14;102275.72;5015560;28;20059;-74
2022/12/17 14:05:36;;;;;;;36.53;17.52;;;;;;;9.87;44.74;102269.31;4995829;28;20064;-75
2022/12/17 14:08:04;;;;;;;36.67;16.95;;;;;;;9.47;45.05;102272.19;4998976;28;20060;-78
2022/12/17 14:10:31;;;;;;;37.60;19.27;;;;;;;9.23;46.80;102266.78;4998657;28;20056;-77
2022/12/17 14:13:17;;;;;;;20.38;8.15;;;;;;;7.77;48.48;102274.66;4999105;28;20131;-78
2022/12/17 14:15:48;;;;;;;42.67;19.15;;;;;;;7.72;49.80;102277.59;5003893;28;20499;-77
2022/12/17 14:18:19;;;;;;;36.85;16.98;;;;;;;7.42;50.41;102281.63;5009093;28;20053;-75
2022/12/17 14:20:48;;;;;;;30.88;14.13;;;;;;;6.21;54.54;102276.53;5009166;28;21022;-75
2022/12/17 14:23:25;;;;;;;32.60;16.02;;;;;;;5.69;57.47;102286.84;5007028;28;20056;-74
2022/12/17 14:25:52;;;;;;;11.60;5.18;;;;;;;5.02;61.09;102283.84;5006711;28;20102;-76
2022/12/17 14:28:22;;;;;;;9.60;4.10;;;;;;;3.87;67.83;102283.66;5005649;28;20069;-76
2022/12/17 14:30:50;;;;;;;36.47;18.80;;;;;;;3.34;71.82;102280.91;5012483;28;20049;-77
2022/12/17 14:33:37;;;;;;;39.40;18.60;;;;;;;2.76;78.80;102282.06;5001292;28;20057;-76
2022/12/17 14:36:22;;;;;;;11.07;5.57;;;;;;;1.87;89.41;102268.03;5007989;28;20232;-77
2022/12/17 14:38:53;;;;;;;36.83;15.45;;;;;;;1.47;97.86;102282.41;5006386;28;20057;-74
2022/12/17 14:44:29;;;;;;;45.42;21.10;;;;;;;0.87;100.00;102279.84;5009673;28;20049;-76
2022/12/17 14:47:19;;;;;;;43.63;19.27;;;;;;;0.78;100.00;102281.59;5011169;28;20057;-76
2022/12/17 14:49:52;;;;;;;40.45;18.70;;;;;;;0.63;100.00;102284.50;5009720;28;20049;-75
2022/12/17 14:52:40;;;;;;;45.95;22.48;;;;;;;0.39;100.00;102283.75;5008143;28;20064;-76
2022/12/17 14:55:34;;;;;;;13.65;6.13;;;;;;;-0.04;100.00;102285.59;5010377;28;20060;-77
2022/12/17 14:58:10;;;;;;;42.67;18.40;;;;;;;-0.24;100.00;102296.69;5005627;28;20078;-75
2022/12/17 15:00:43;;;;;;;42.63;20.85;;;;;;;-0.40;100.00;102303.41;5003034;28;20051;-78
2022/12/17 15:03:22;;;;;;;45.22;21.13;;;;;;;-0.50;100.00;102293.41;5010257;28;20048;-76
2022/12/17 15:05:56;;;;;;;47.33;18.90;;;;;;;-0.68;100.00;102294.13;5013639;28;20052;-76
2022/12/17 15:08:22;;;;;;;52.22;24.98;;;;;;;-0.71;100.00;102288.44;5014873;28;20059;-76
2022/12/17 15:10:49;;;;;;;52.08;25.13;;;;;;;-0.73;100.00;102283.28;5008970;28;20053;-78
2022/12/17 15:13:16;;;;;;;53.42;25.95;;;;;;;-0.69;100.00;102284.34;5012832;28;20045;-79
2022/12/17 15:15:42;;;;;;;77.57;51.58;;;;;;;-0.86;100.00;102288.53;5010591;28;20060;-77
2022/12/17 15:18:11;;;;;;;59.20;31.05;;;;;;;-0.92;100.00;102285.06;5007889;28;20436;-77
2022/12/17 15:20:38;;;;;;;67.82;47.75;;;;;;;-1.03;100.00;102282.69;5006509;28;20842;-75
2022/12/17 15:23:05;;;;;;;56.00;25.40;;;;;;;-1.18;100.00;102282.81;5008198;28;20045;-75
2022/12/17 15:25:31;;;;;;;68.03;31.58;;;;;;;-1.29;100.00;102283.94;5004071;28;20053;-79
2022/12/17 15:27:58;;;;;;;117.20;60.90;;;;;;;-1.27;100.00;102298.88;5012148;28;20090;-78
2022/12/17 15:30:24;;;;;;;34.70;12.43;;;;;;;-1.50;100.00;102285.16;5006754;28;20061;-77
2022/12/17 15:32:51;;;;;;;14.60;7.53;;;;;;;-1.54;100.00;102301.19;5012855;28;20781;-75
2022/12/17 15:35:17;;;;;;;134.75;67.55;;;;;;;-1.63;100.00;102304.75;5005111;28;20840;-76
2022/12/17 15:37:44;;;;;;;53.47;26.33;;;;;;;-1.70;100.00;102304.22;5010240;28;20045;-76
2022/12/17 15:40:11;;;;;;;62.00;28.77;;;;;;;-1.71;100.00;102318.91;5005552;28;20403;-77
2022/12/17 15:45:30;;;;;;;84.28;45.88;;;;;;;-1.76;100.00;102325.16;5010485;28;20052;-73
2022/12/17 15:47:57;;;;;;;74.30;41.13;;;;;;;-1.77;100.00;102337.09;5007976;28;20065;-73
2022/12/17 15:50:23;;;;;;;59.20;29.65;;;;;;;-1.78;100.00;102338.19;5008616;28;20830;-75
2022/12/17 15:52:50;;;;;;;61.83;29.42;;;;;;;-1.79;100.00;102331.13;5007356;28;20079;-76
2022/12/17 15:55:17;;;;;;;58.45;29.92;;;;;;;-1.84;100.00;102333.88;5007043;28;20069;-74
2022/12/17 15:57:43;;;;;;;105.43;59.08;;;;;;;-1.95;100.00;102334.16;5007236;28;20057;-75
2022/12/17 16:00:10;;;;;;;123.40;69.57;;;;;;;-1.97;100.00;102329.00;5011232;28;20049;-75
2022/12/17 16:02:37;;;;;;;92.78;42.95;;;;;;;-1.95;100.00;102328.75;5005754;28;20045;-76
2022/12/17 16:05:05;;;;;;;219.73;111.43;;;;;;;-2.01;100.00;102335.25;5001794;28;20053;-80
2022/12/17 16:07:32;;;;;;;152.48;60.95;;;;;;;-2.09;100.00;102331.22;4995779;28;20650;-77
2022/12/17 16:09:59;;;;;;;70.10;32.63;;;;;;;-2.09;100.00;102344.78;4998630;28;20049;-74
2022/12/17 16:12:31;;;;;;;88.38;33.67;;;;;;;-2.17;100.00;102348.03;5007862;28;20183;-76
2022/12/17 16:14:58;;;;;;;80.63;40.35;;;;;;;-2.19;100.00;102346.69;5003992;28;20876;-75
2022/12/17 16:17:24;;;;;;;84.38;37.63;;;;;;;-2.19;100.00;102349.41;5004786;28;20679;-76
2022/12/17 16:19:51;;;;;;;90.82;42.22;;;;;;;-2.20;100.00;102339.66;5003431;28;20056;-74
2022/12/17 16:22:17;;;;;;;74.82;37.15;;;;;;;-2.25;100.00;102350.47;5006527;28;20037;-75
2022/12/17 16:24:44;;;;;;;121.72;56.03;;;;;;;-2.37;100.00;102342.63;5001140;28;20279;-71
2022/12/17 16:27:11;;;;;;;108.95;52.83;;;;;;;-2.38;100.00;102349.13;5004868;28;20869;-76
2022/12/17 16:29:38;;;;;;;76.13;34.20;;;;;;;-2.46;100.00;102352.41;5002612;28;20049;-74
2022/12/17 16:32:05;;;;;;;76.40;37.00;;;;;;;-2.53;100.00;102354.56;5003790;28;20056;-73
2022/12/17 16:34:31;;;;;;;74.47;33.90;;;;;;;-2.60;100.00;102351.28;5004511;28;20569;-73
2022/12/17 16:37:00;;;;;;;71.10;36.28;;;;;;;-2.63;100.00;102360.78;5004003;28;20038;-74
2022/12/17 16:39:27;;;;;;;75.18;36.13;;;;;;;-2.64;100.00;102365.69;5000660;28;20843;-73
2022/12/17 16:41:53;;;;;;;80.75;40.67;;;;;;;-2.56;100.00;102371.38;5005359;28;20083;-74
2022/12/17 16:44:20;;;;;;;83.65;44.63;;;;;;;-2.57;100.00;102367.00;5001704;28;20053;-73
2022/12/17 16:46:46;;;;;;;89.05;44.25;;;;;;;-2.56;100.00;102370.56;5005022;28;20045;-73
2022/12/17 16:49:18;;;;;;;75.50;40.97;;;;;;;-2.54;100.00;102377.31;5005496;28;20461;-73
2022/12/17 16:51:51;;;;;;;89.40;41.97;;;;;;;-2.54;100.00;102374.59;5005601;28;20201;-75
2022/12/17 16:54:20;;;;;;;88.88;44.15;;;;;;;-2.56;100.00;102378.69;5007009;28;20124;-74
2022/12/17 16:56:47;;;;;;;97.00;50.22;;;;;;;-2.55;100.00;102380.28;5013900;28;20046;-76
2022/12/17 16:59:15;;;;;;;92.20;44.25;;;;;;;-2.50;100.00;102383.81;5009960;28;20049;-76
2022/12/17 17:01:45;;;;;;;76.78;36.00;;;;;;;-2.45;100.00;102383.00;5008598;28;20049;-78
2022/12/17 17:04:14;;;;;;;70.75;33.17;;;;;;;-2.49;100.00;102385.47;5005948;28;20840;-76
2022/12/17 17:06:46;;;;;;;65.43;31.65;;;;;;;-2.51;100.00;102390.34;5006630;28;20052;-77
2022/12/17 17:09:14;;;;;;;69.85;35.22;;;;;;;-2.55;100.00;102386.53;5002529;28;20059;-75
2022/12/17 17:11:41;;;;;;;75.22;36.67;;;;;;;-2.59;100.00;102377.34;5017675;28;20045;-74
2022/12/17 17:14:12;;;;;;;76.63;35.90;;;;;;;-2.62;100.00;102386.00;5002426;28;20160;-74
2022/12/17 17:16:38;;;;;;;68.70;32.78;;;;;;;-2.64;100.00;102385.44;5006264;28;20045;-77
2022/12/17 17:19:05;;;;;;;79.45;36.60;;;;;;;-2.65;100.00;102375.69;5005547;28;20151;-75
2022/12/17 17:21:35;;;;;;;83.88;39.63;;;;;;;-2.70;100.00;102375.69;5006941;28;20056;-76
2022/12/17 17:24:06;;;;;;;97.75;47.85;;;;;;;-2.71;100.00;102385.72;5008912;28;20057;-74
2022/12/17 17:26:33;;;;;;;76.47;38.17;;;;;;;-2.74;100.00;102380.00;5005375;28;20056;-74
2022/12/17 17:29:01;;;;;;;88.10;44.28;;;;;;;-2.75;100.00;102389.22;5002243;28;20096;-76
2022/12/17 17:31:27;;;;;;;93.82;44.63;;;;;;;-2.88;100.00;102384.31;5007266;28;20045;-78
2022/12/17 17:34:14;;;;;;;124.78;60.75;;;;;;;-2.91;100.00;102395.69;5008285;28;20091;-76
2022/12/17 17:36:41;;;;;;;124.93;60.08;;;;;;;-2.98;100.00;102384.28;5005809;28;20040;-76
2022/12/17 17:39:08;;;;;;;75.90;37.63;;;;;;;-2.95;100.00;102391.88;5007114;28;20046;-75
2022/12/17 17:41:35;;;;;;;97.30;47.33;;;;;;;-2.96;100.00;102392.97;5008645;28;20049;-77
2022/12/17 17:44:07;;;;;;;99.70;55.85;;;;;;;-2.98;100.00;102392.41;5006428;28;20053;-74
2022/12/17 17:46:34;;;;;;;127.95;61.92;;;;;;;-3.04;100.00;102397.00;5008635;28;20060;-77
2022/12/17 17:49:02;;;;;;;125.50;58.45;;;;;;;-3.07;100.00;102402.16;5005775;28;20940;-77
2022/12/17 17:51:34;;;;;;;96.15;45.92;;;;;;;-3.08;100.00;102398.63;5003117;28;20049;-76
2022/12/17 17:54:20;;;;;;;209.70;97.65;;;;;;;-3.10;100.00;102398.06;5007890;28;20164;-75
2022/12/17 17:56:46;;;;;;;85.85;44.42;;;;;;;-3.16;100.00;102391.03;5009251;28;20057;-76
2022/12/17 17:59:17;;;;;;;83.53;43.20;;;;;;;-3.15;100.00;102394.53;5010773;28;20522;-76
2022/12/17 18:01:48;;;;;;;120.28;65.18;;;;;;;-3.24;100.00;102394.22;5009679;28;20058;-77
2022/12/17 18:04:18;;;;;;;91.13;47.50;;;;;;;-3.26;100.00;102390.16;5029471;28;20107;-77
2022/12/17 18:06:46;;;;;;;82.80;38.35;;;;;;;-3.27;100.00;102391.25;5020770;28;20470;-77
2022/12/17 18:09:33;;;;;;;90.93;47.58;;;;;;;-3.35;100.00;102379.03;5000257;28;20053;-74
2022/12/17 18:13:53;;;;;;;83.00;42.05;;;;;;;-3.39;100.00;102387.94;5005385;28;20056;-74
2022/12/17 18:14:47;;;;;;;115.10;59.13;;;;;;;-3.50;100.00;102399.81;5004319;28;21551;-74
2022/12/17 18:17:34;;;;;;;94.68;45.88;;;;;;;-3.70;100.00;102387.00;5011139;28;20724;-74
2022/12/17 18:20:00;;;;;;;72.95;34.08;;;;;;;-3.62;100.00;102401.88;5023585;28;20045;-73
2022/12/17 18:22:27;;;;;;;80.18;39.33;;;;;;;-3.62;100.00;102407.31;5008289;28;20046;-73
2022/12/17 18:24:54;;;;;;;85.82;41.17;;;;;;;-3.65;100.00;102415.97;5006366;28;20072;-71
2022/12/17 18:27:20;;;;;;;84.30;38.80;;;;;;;-3.73;100.00;102406.44;5013990;28;20045;-73
2022/12/17 18:29:47;;;;;;;75.15;33.47;;;;;;;-3.78;100.00;102403.69;5006788;28;20164;-73
2022/12/17 18:32:13;;;;;;;69.03;32.88;;;;;;;-3.80;100.00;102408.56;5005508;28;20060;-75
2022/12/17 18:34:40;;;;;;;68.38;32.17;;;;;;;-3.87;100.00;102407.16;5003903;28;20050;-75
2022/12/17 18:37:07;;;;;;;85.25;40.83;;;;;;;-3.91;100.00;102417.66;5021460;28;20053;-72
2022/12/17 18:39:33;;;;;;;72.60;36.75;;;;;;;-3.95;100.00;102413.88;5003763;28;20045;-73
2022/12/17 18:44:45;;;;;;;76.30;37.25;;;;;;;-4.05;100.00;102421.09;5003867;28;20049;-73
2022/12/17 18:47:12;;;;;;;95.80;44.80;;;;;;;-4.08;100.00;102429.72;5004857;28;20070;-71
2022/12/17 18:49:38;;;;;;;94.35;44.70;;;;;;;-4.11;100.00;102430.25;5008844;28;20364;-72
2022/12/17 18:52:05;;;;;;;92.05;45.75;;;;;;;-4.12;100.00;102429.41;5005983;28;20056;-74
2022/12/17 18:54:38;;;;;;;76.45;37.50;;;;;;;-4.17;100.00;102425.84;5003234;28;20092;-76
2022/12/17 18:57:05;;;;;;;81.22;44.05;;;;;;;-4.12;100.00;102434.81;5003599;28;20041;-74
2022/12/17 18:59:31;;;;;;;77.10;39.15;;;;;;;-4.18;100.00;102432.34;5009137;28;20049;-72
2022/12/17 19:01:58;;;;;;;80.13;40.45;;;;;;;-4.21;100.00;102422.06;5005053;28;20489;-74
2022/12/17 19:04:25;;;;;;;83.65;42.75;;;;;;;-4.22;100.00;102425.84;5009749;28;20053;-72
2022/12/17 19:06:53;;;;;;;80.55;38.33;;;;;;;-4.26;100.00;102435.53;5005527;28;20045;-72
2022/12/17 19:09:34;;;;;;;88.25;47.05;;;;;;;-4.29;100.00;102436.84;5010968;28;20813;-73
2022/12/17 19:12:02;;;;;;;88.25;47.55;;;;;;;-4.24;100.00;102434.19;5000637;28;20164;-74
2022/12/17 19:14:28;;;;;;;93.65;47.67;;;;;;;-4.31;100.00;102425.50;5010457;28;20046;-72
2022/12/17 19:16:56;;;;;;;80.60;41.13;;;;;;;-4.29;100.00;102427.94;5004982;28;20061;-75
2022/12/17 19:19:24;;;;;;;80.50;44.20;;;;;;;-4.32;100.00;102431.16;5004556;28;20083;-73
2022/12/17 19:21:53;;;;;;;90.43;41.97;;;;;;;-4.40;100.00;102429.72;5009671;28;20114;-71
2022/12/17 19:24:21;;;;;;;104.43;57.28;;;;;;;-4.47;100.00;102418.31;5000651;28;21021;-72
2022/12/17 19:26:48;;;;;;;82.47;44.30;;;;;;;-4.44;100.00;102428.63;5004277;28;20052;-72
2022/12/17 19:29:16;;;;;;;78.22;38.85;;;;;;;-4.42;100.00;102429.16;5009196;28;20111;-71
2022/12/17 19:31:43;;;;;;;75.28;37.50;;;;;;;-4.46;100.00;102430.75;5009919;28;20054;-72
2022/12/17 19:34:12;;;;;;;77.45;37.17;;;;;;;-4.50;100.00;102431.50;5004489;28;20056;-71
2022/12/17 19:36:39;;;;;;;97.47;45.00;;;;;;;-4.53;100.00;102434.75;5005235;28;20056;-69
2022/12/17 19:39:07;;;;;;;119.72;65.35;;;;;;;-4.66;100.00;102421.66;5004487;28;20052;-72
2022/12/17 19:41:34;;;;;;;89.05;49.53;;;;;;;-4.58;100.00;102442.78;5012829;28;20080;-70
2022/12/17 19:44:04;;;;;;;128.38;74.50;;;;;;;-4.60;100.00;102439.50;5008781;28;20053;-71
2022/12/17 19:46:32;;;;;;;86.85;46.45;;;;;;;-4.66;100.00;102438.66;5005942;28;20053;-72
2022/12/17 19:48:59;;;;;;;99.82;49.78;;;;;;;-4.70;100.00;102444.84;5008328;28;20496;-70
2022/12/17 19:51:28;;;;;;;81.63;41.90;;;;;;;-4.77;100.00;102442.31;5006605;28;20064;-71
2022/12/17 19:53:55;;;;;;;89.43;44.05;;;;;;;-4.78;100.00;102443.41;5010485;28;20868;-70
2022/12/17 19:56:21;;;;;;;83.65;41.00;;;;;;;-4.78;100.00;102443.41;5005823;28;20053;-72
2022/12/17 19:58:51;;;;;;;89.10;41.88;;;;;;;-4.77;100.00;102449.59;5005511;28;20057;-71
2022/12/17 20:01:23;;;;;;;82.10;41.17;;;;;;;-4.79;100.00;102455.28;5006244;28;20154;-72
2022/12/17 20:03:51;;;;;;;96.75;44.17;;;;;;;-4.78;100.00;102458.78;5008015;28;20045;-72
2022/12/17 20:06:21;;;;;;;82.38;40.05;;;;;;;-4.79;100.00;102462.56;5006448;28;20520;-71
2022/12/17 20:08:48;;;;;;;81.05;41.15;;;;;;;-4.82;100.00;102465.75;5014857;28;20052;-74
2022/12/17 20:11:31;;;;;;;86.90;41.90;;;;;;;-4.85;100.00;102460.84;5002005;28;20505;-72
2022/12/17 20:14:10;;;;;;;103.20;53.00;;;;;;;-4.90;100.00;102463.53;5004790;28;20792;-73
2022/12/17 20:16:39;;;;;;;86.95;42.30;;;;;;;-5.01;100.00;102454.47;5001151;28;20052;-72
2022/12/17 20:19:09;;;;;;;84.55;40.78;;;;;;;-5.00;100.00;102468.78;5002130;28;20049;-71
2022/12/17 20:21:36;;;;;;;85.95;43.13;;;;;;;-4.98;100.00;102477.44;5006798;28;20053;-72
2022/12/17 20:24:03;;;;;;;91.82;44.42;;;;;;;-4.99;100.00;102462.31;5004244;28;20046;-72
2022/12/17 20:26:30;;;;;;;90.20;47.60;;;;;;;-4.98;100.00;102478.28;5006380;28;20060;-72
2022/12/17 20:28:58;;;;;;;101.93;51.00;;;;;;;-4.97;100.00;102479.09;5005108;28;20049;-72
2022/12/17 20:31:26;;;;;;;88.05;40.45;;;;;;;-5.00;100.00;102487.69;5005883;28;20053;-71
2022/12/17 20:33:52;;;;;;;87.43;42.65;;;;;;;-5.01;100.00;102470.66;5007257;28;20162;-72
2022/12/17 20:36:20;;;;;;;97.95;48.90;;;;;;;-5.07;100.00;102471.66;5005454;28;20057;-71
2022/12/17 20:38:47;;;;;;;84.85;41.13;;;;;;;-5.12;100.00;102468.91;5007048;28;20419;-72
2022/12/17 20:41:20;;;;;;;80.43;42.33;;;;;;;-5.11;100.00;102469.72;5004839;28;20054;-73
2022/12/17 20:43:48;;;;;;;89.38;43.65;;;;;;;-5.11;100.00;102469.72;5006421;28;20045;-72
2022/12/17 20:46:15;;;;;;;112.30;58.90;;;;;;;-5.17;100.00;102471.53;5006579;28;20880;-71
2022/12/17 20:48:43;;;;;;;116.32;53.38;;;;;;;-5.19;100.00;102467.47;5007159;28;20056;-71
2022/12/17 20:51:22;;;;;;;144.45;62.80;;;;;;;-5.26;100.00;102473.06;5004636;28;20059;-71
2022/12/17 20:53:49;;;;;;;94.78;45.15;;;;;;;-5.32;100.00;102465.97;5006886;28;20045;-70
2022/12/17 20:56:20;;;;;;;95.00;44.55;;;;;;;-5.34;100.00;102480.78;5022784;28;20421;-71
2022/12/17 20:58:47;;;;;;;91.35;42.55;;;;;;;-5.40;100.00;102482.59;5005658;28;20524;-70
2022/12/17 21:01:20;;;;;;;95.85;45.25;;;;;;;-5.45;100.00;102477.94;5006210;28;20056;-71
2022/12/17 21:03:48;;;;;;;84.30;39.35;;;;;;;-5.42;100.00;102480.13;5004171;28;20068;-72
2022/12/17 21:06:16;;;;;;;95.05;44.10;;;;;;;-5.43;100.00;102477.69;5012269;28;20242;-72
2022/12/17 21:08:47;;;;;;;94.57;44.53;;;;;;;-5.43;100.00;102475.00;5013868;28;20060;-71
2022/12/17 21:11:21;;;;;;;93.78;44.95;;;;;;;-5.57;100.00;102455.63;5015605;28;20177;-69
2022/12/17 21:13:47;;;;;;;118.68;55.78;;;;;;;-5.45;100.00;102469.84;5011907;28;20065;-70
2022/12/17 21:16:25;;;;;;;96.32;44.28;;;;;;;-5.41;100.00;102470.97;5009841;28;20053;-73
2022/12/17 21:18:57;;;;;;;129.02;61.72;;;;;;;-5.48;100.00;102480.28;5027214;28;20111;-70
2022/12/17 21:21:27;;;;;;;119.03;57.40;;;;;;;-5.47;100.00;102477.34;5011131;28;20532;-71
2022/12/17 21:23:54;;;;;;;114.30;52.00;;;;;;;-5.50;100.00;102477.84;5015005;28;20049;-72
2022/12/17 21:26:24;;;;;;;104.40;50.47;;;;;;;-5.53;100.00;102474.84;5011630;28;20080;-71
2022/12/17 21:28:59;;;;;;;109.85;53.17;;;;;;;-5.59;100.00;102470.44;5009511;28;20458;-72
2022/12/17 21:31:30;;;;;;;116.93;52.22;;;;;;;-5.58;100.00;102475.59;5014638;28;20061;-71
2022/12/17 21:33:59;;;;;;;149.10;73.72;;;;;;;-5.59;100.00;102481.22;5011856;28;20050;-72
2022/12/17 21:36:27;;;;;;;140.57;66.82;;;;;;;-5.61;100.00;102483.34;5010727;28;20164;-73
2022/12/17 21:38:54;;;;;;;131.45;64.90;;;;;;;-5.63;100.00;102480.09;5011382;28;20053;-72
2022/12/17 21:41:24;;;;;;;199.93;99.60;;;;;;;-5.63;100.00;102485.47;5010601;28;20061;-72
2022/12/17 21:44:00;;;;;;;137.43;63.65;;;;;;;-5.61;100.00;102491.44;5011921;28;20046;-72
2022/12/17 21:46:27;;;;;;;172.07;75.38;;;;;;;-5.59;100.00;102495.53;5009358;28;20103;-73
2022/12/17 21:48:59;;;;;;;272.80;122.30;;;;;;;-5.60;100.00;102501.97;5008883;28;20053;-72
2022/12/17 21:51:27;;;;;;;158.57;72.63;;;;;;;-5.61;100.00;102494.94;5011354;28;20053;-72
2022/12/17 21:53:55;;;;;;;148.63;68.15;;;;;;;-5.65;100.00;102488.44;5012791;28;20465;-73
2022/12/17 21:56:22;;;;;;;216.38;95.90;;;;;;;-5.67;100.00;102492.44;5009618;28;20057;-71
2022/12/17 21:58:55;;;;;;;113.97;53.38;;;;;;;-5.67;100.00;102501.31;5010434;28;20045;-72
2022/12/17 22:01:24;;;;;;;143.40;59.88;;;;;;;-5.68;100.00;102505.09;5010208;28;20214;-71
2022/12/17 22:03:53;;;;;;;127.38;52.15;;;;;;;-5.68;100.00;102504.25;5010413;28;20049;-71
2022/12/17 22:06:23;;;;;;;301.23;129.65;;;;;;;-5.71;100.00;102496.66;5008374;28;20872;-71
2022/12/17 22:08:59;;;;;;;114.30;52.50;;;;;;;-5.77;100.00;102497.69;5010744;28;20049;-72
2022/12/17 22:11:39;;;;;;;179.80;75.25;;;;;;;-5.81;100.00;102491.16;4997645;28;20057;-70
2022/12/17 22:14:08;;;;;;;127.82;55.50;;;;;;;-5.83;100.00;102490.59;5011466;28;20045;-72
2022/12/17 22:16:46;;;;;;;138.35;56.08;;;;;;;-5.85;100.00;102493.53;5008887;28;20045;-71
2022/12/17 22:19:14;;;;;;;121.32;56.90;;;;;;;-5.84;100.00;102499.75;5009214;28;20905;-72
2022/12/17 22:21:42;;;;;;;142.52;58.17;;;;;;;-5.85;100.00;102507.00;5002495;28;20045;-71
2022/12/17 22:24:14;;;;;;;127.82;54.63;;;;;;;-5.92;100.00;102494.75;5007124;28;20057;-72
2022/12/17 22:26:41;;;;;;;121.85;54.00;;;;;;;-5.90;100.00;102498.84;5009726;28;20049;-71
2022/12/17 22:29:08;;;;;;;237.57;94.85;;;;;;;-5.92;100.00;102492.88;5006074;28;20148;-71
2022/12/17 22:34:21;;;;;;;169.75;70.47;;;;;;;-5.93;100.00;102490.44;5006899;28;21022;-71
2022/12/17 22:37:07;;;;;;;112.43;53.28;;;;;;;-5.90;100.00;102500.72;5004945;28;20071;-71
2022/12/17 22:39:54;;;;;;;127.28;55.28;;;;;;;-5.89;100.00;102499.66;5006675;28;20048;-71
2022/12/17 22:45:45;;;;;;;140.70;58.87;;;;;;;-5.96;100.00;102499.84;5007849;28;20060;-71
2022/12/17 22:48:13;;;;;;;111.10;49.90;;;;;;;-5.89;100.00;102508.56;5008861;28;20864;-72
2022/12/17 22:50:41;;;;;;;102.75;50.10;;;;;;;-5.92;100.00;102510.94;5006157;28;20057;-72
2022/12/17 22:53:28;;;;;;;114.00;48.92;;;;;;;-5.93;100.00;102515.53;5004295;28;20057;-72
2022/12/17 22:56:03;;;;;;;108.10;48.10;;;;;;;-5.96;100.00;102516.00;5011534;28;20565;-71
2022/12/17 22:58:45;;;;;;;128.48;60.38;;;;;;;-5.97;100.00;102522.44;5012378;28;20052;-71
2022/12/17 23:01:12;;;;;;;118.82;52.47;;;;;;;-6.01;100.00;102515.91;5004677;28;20046;-70
2022/12/17 23:03:46;;;;;;;132.77;55.53;;;;;;;-6.03;100.00;102514.53;5006193;28;20053;-73
2022/12/17 23:06:16;;;;;;;104.63;48.38;;;;;;;-6.01;100.00;102515.91;5008320;28;20192;-71
2022/12/17 23:08:43;;;;;;;105.65;45.65;;;;;;;-6.04;100.00;102523.69;5004657;28;20041;-72
2022/12/17 23:11:13;;;;;;;118.50;52.38;;;;;;;-6.15;100.00;102511.06;5006982;28;20049;-72
2022/12/17 23:13:40;;;;;;;150.60;64.82;;;;;;;-6.08;100.00;102519.81;5014354;28;20049;-71
2022/12/17 23:16:10;;;;;;;121.43;52.45;;;;;;;-6.12;100.00;102516.81;5016519;28;20075;-72
2022/12/17 23:18:36;;;;;;;107.60;46.85;;;;;;;-6.12;100.00;102510.59;5009018;28;20079;-73
2022/12/17 23:21:10;;;;;;;112.10;53.08;;;;;;;-6.12;100.00;102516.81;5010883;28;20833;-72
2022/12/17 23:23:38;;;;;;;113.57;53.97;;;;;;;-6.11;100.00;102514.94;5006091;28;20053;-71
2022/12/17 23:26:12;;;;;;;119.75;54.72;;;;;;;-6.18;100.00;102512.38;5011586;28;20045;-70
2022/12/17 23:28:39;;;;;;;105.70;49.58;;;;;;;-6.21;100.00;102502.09;5009004;28;20489;-71
2022/12/17 23:31:25;;;;;;;112.95;50.75;;;;;;;-6.29;100.00;102490.88;5006157;28;20045;-72
2022/12/17 23:33:52;;;;;;;100.60;44.20;;;;;;;-6.20;100.00;102511.81;5006572;28;20049;-73
2022/12/17 23:36:21;;;;;;;95.90;43.80;;;;;;;-6.23;100.00;102500.69;5006611;28;20874;-71
2022/12/17 23:38:48;;;;;;;92.13;42.65;;;;;;;-6.21;100.00;102510.16;5002769;28;20061;-71
2022/12/17 23:41:19;;;;;;;107.35;46.78;;;;;;;-6.26;100.00;102512.78;5005145;28;20053;-71
2022/12/17 23:43:47;;;;;;;97.97;42.80;;;;;;;-6.35;100.00;102508.84;5005703;28;20045;-71
2022/12/17 23:46:14;;;;;;;106.80;46.85;;;;;;;-6.33;100.00;102514.00;5008935;28;20064;-72
2022/12/17 23:48:43;;;;;;;94.07;42.28;;;;;;;-6.42;100.00;102507.34;5007996;28;20053;-72
2022/12/17 23:51:13;;;;;;;99.78;45.30;;;;;;;-6.39;100.00;102514.94;5012333;28;20188;-71
2022/12/17 23:53:40;;;;;;;88.57;43.65;;;;;;;-6.42;100.00;102518.94;5008531;28;20073;-71
2022/12/17 23:56:14;;;;;;;98.07;44.35;;;;;;;-6.44;100.00;102515.69;5012130;28;20068;-71
2022/12/17 23:58:42;;;;;;;90.70;41.33;;;;;;;-6.46;100.00;102508.91;5012382;28;20064;-71
